Latest Weather Observations for Port Hedland

IDW60801

Issued at 10:05 am WST Tuesday 23 September 2014 (issued every 30 minutes, with the page automatically refreshed every 10 minutes)

About weather observations | Map of weather stations | Latest weather observations for WA | Other Formats
Station Details ID: 004032 Name: PORT HEDLAND AIRPORT Lat: -20.37 Lon: 118.63 Height: 6.4 m
Data from the previous 72 hours. | See also: Recent months at Port Hedland
Date/Time
WST
Temp
°C
App
Temp
°C
Dew
Point
Rel
Hum
%
Delta-T
°C
Wind Press
QNH
hPa
Press
MSL
hPa
Rain
since 9 am
mm
Dir
 
Spd
km/h
Gust
km/h
Spd
kts
Gust
kts
23/10:00am 25.9 17.9 -6.0 12 13.2 SE 28 41 15 22 1019.1 - 0.0
23/09:30am 24.3 16.0 -5.2 13 12.2 SE 30 46 16 25 1019.4 - 0.0
23/09:00am 23.8 15.5 -4.5 15 11.8 SE 30 46 16 25 1019.3 1019.3 0.0
23/08:44am 23.7 15.0 -4.7 15 11.8 ESE 32 50 17 27 1019.3 - 0.0
23/08:30am 23.1 14.5 -4.3 16 11.4 SE 32 46 17 25 1019.3 - 0.0
23/08:00am 22.3 13.1 -4.4 16 11.0 SE 35 52 19 28 1019.0 - 0.0
23/07:40am 21.6 12.4 -4.7 17 10.7 SE 35 54 19 29 1018.8 - 0.0
23/07:30am 21.6 12.8 -4.2 17 10.6 SE 33 46 18 25 1018.7 - 0.0
23/07:00am 21.2 13.8 -3.7 18 10.3 SE 26 43 14 23 1018.5 - 0.0
23/06:30am 20.0 13.7 -3.7 20 9.7 SE 20 28 11 15 1017.8 - 0.0
23/06:00am 19.4 13.1 -3.7 20 9.4 SE 20 26 11 14 1017.2 1017.2 0.0
23/05:30am 19.6 13.4 -3.2 21 9.4 SE 20 26 11 14 1016.6 - 0.0
23/05:00am 20.5 12.7 -3.9 19 10.0 SE 28 37 15 20 1016.0 - 0.0
23/04:30am 20.7 12.6 -3.0 20 9.9 SSE 30 39 16 21 1015.5 - 0.0
23/04:00am 20.8 12.8 -2.3 21 9.8 SSE 30 41 16 22 1015.0 - 0.0
23/03:30am 20.3 13.6 -1.2 23 9.3 SSE 24 32 13 17 1014.6 - 0.0
23/03:00am 19.6 13.3 -0.7 25 8.8 SSE 22 28 12 15 1014.5 1014.5 0.0
23/02:30am 18.4 12.8 -0.3 28 8.1 SSE 19 22 10 12 1014.5 - 0.0
23/02:00am 18.1 13.7 0.6 30 7.7 SSE 13 15 7 8 1014.6 - 0.0
23/01:30am 18.9 14.5 0.2 28 8.2 SSE 13 15 7 8 1014.7 - 0.0
23/01:00am 18.1 15.2 2.6 35 7.1 SE 7 9 4 5 1014.8 - 0.0
23/12:30am 19.9 15.9 0.3 27 8.7 S 11 15 6 8 1014.7 - 0.0
23/12:00am 19.6 16.1 3.5 34 7.6 SSE 11 11 6 6 1015.0 1015.0 0.0
 
Date/Time
WST
Temp
°C
App
Temp
°C
Dew
Point
Rel
Hum
%
Delta-T
°C
Wind Press
QNH
hPa
Press
MSL
hPa
Rain
since 9 am
mm
Dir
 
Spd
km/h
Gust
km/h
Spd
kts
Gust
kts
22/11:30pm 20.7 17.3 3.8 33 8.1 S 11 15 6 8 1015.1 - 0.0
22/11:00pm 20.2 17.2 7.8 44 6.4 SSW 13 19 7 10 1015.3 - 0.0
22/10:30pm 19.7 18.3 13.4 67 3.6 SW 13 17 7 9 1015.3 - 0.0
22/10:00pm 20.7 19.3 14.5 67 3.6 WSW 15 19 8 10 1015.3 - 0.0
22/09:30pm 20.4 18.8 13.8 66 3.8 WSW 15 19 8 10 1015.3 - 0.0
22/09:00pm 20.6 18.7 13.0 61 4.3 W 15 17 8 9 1015.1 1015.1 0.0
22/08:30pm 21.7 19.6 12.5 56 5.2 W 15 19 8 10 1014.8 - 0.0
22/08:00pm 23.1 20.0 11.7 48 6.4 W 19 24 10 13 1014.3 - 0.0
22/07:30pm 23.4 19.0 6.7 34 8.6 W 19 20 10 11 1013.9 - 0.0
22/07:00pm 25.0 20.2 5.6 28 9.9 W 20 24 11 13 1013.4 - 0.0
22/06:30pm 25.4 22.5 11.0 40 8.1 WNW 17 20 9 11 1012.7 - 0.0
22/06:00pm 26.1 24.6 13.1 44 7.6 NW 13 17 7 9 1012.4 1012.4 0.0
22/05:30pm 28.4 25.4 12.7 38 9.2 WNW 20 26 11 14 1011.9 - 0.0
22/05:00pm 30.0 25.9 11.3 31 10.8 WNW 24 28 13 15 1011.9 - 0.0
22/04:30pm 31.2 27.2 11.9 30 11.3 WNW 24 32 13 17 1011.7 - 0.0
22/04:00pm 31.5 26.7 10.4 27 12.1 WNW 26 32 14 17 1011.7 - 0.0
22/03:30pm 33.1 28.1 10.9 25 12.9 WNW 28 35 15 19 1011.7 - 0.0
22/03:00pm 32.9 28.1 11.6 27 12.5 WNW 28 37 15 20 1011.9 1011.9 0.0
22/02:30pm 33.2 28.4 11.6 26 12.7 WNW 28 39 15 21 1012.0 - 0.0
22/02:00pm 32.9 28.3 11.1 26 12.7 NW 26 39 14 21 1012.4 - 0.0
22/01:30pm 34.7 29.7 9.6 21 14.4 WNW 26 33 14 18 1012.6 - 0.0
22/01:00pm 35.0 26.1 -6.9 6 18.5 WSW 32 46 17 25 1013.1 - 0.0
22/12:30pm 35.1 27.0 -7.2 6 18.6 W 28 35 15 19 1013.6 - 0.0
22/12:00pm 33.9 26.7 -2.4 9 17.1 SW 26 39 14 21 1014.2 1014.2 0.0
22/11:30am 32.5 26.4 2.8 15 15.1 SSW 24 35 13 19 1014.6 - 0.0
22/11:00am 31.2 24.9 4.0 18 14.0 SSW 26 39 14 21 1015.4 - 0.0
22/10:30am 30.4 23.8 4.4 19 13.4 SW 28 32 15 17 1015.7 - 0.0
22/10:00am 29.7 23.7 5.4 21 12.7 SSW 26 35 14 19 1016.0 - 0.0
22/09:30am 28.2 21.7 6.3 25 11.5 SSW 30 43 16 23 1016.4 - 0.0
22/09:00am 27.3 21.1 8.0 29 10.4 SSW 30 39 16 21 1016.5 1016.5 0.0
22/08:30am 26.3 22.5 11.3 39 8.5 S 22 32 12 17 1016.7 - 0.0
22/08:00am 25.1 21.3 12.4 45 7.3 SSW 24 30 13 16 1016.6 - 0.0
22/07:30am 23.7 20.2 13.3 52 6.0 SW 24 33 13 18 1016.2 - 0.0
22/07:00am 20.5 18.3 14.5 68 3.5 WSW 19 24 10 13 1015.6 - 0.0
22/06:30am 18.4 17.0 14.4 77 2.3 WSW 15 17 8 9 1015.2 - 0.0
22/06:00am 17.6 16.1 14.1 80 2.0 WSW 15 17 8 9 1014.9 1014.9 0.0
22/05:30am 17.7 16.1 13.8 78 2.2 WSW 15 19 8 10 1014.5 - 0.0
22/05:00am 18.6 16.6 13.9 74 2.7 W 17 19 9 10 1014.1 - 0.0
22/04:30am 18.9 17.0 14.2 74 2.7 W 17 19 9 10 1013.7 - 0.0
22/04:00am 19.0 17.3 14.7 76 2.5 WSW 17 17 9 9 1013.7 - 0.0
22/03:30am 19.6 18.5 15.4 77 2.5 W 15 17 8 9 1013.6 - 0.0
22/03:00am 20.4 19.3 16.4 78 2.4 WSW 17 20 9 11 1013.6 1013.6 0.0
22/02:30am 21.1 20.5 17.5 80 2.2 WSW 17 20 9 11 1013.6 - 0.0
22/02:00am 22.2 21.2 17.9 76 2.7 W 20 24 11 13 1013.8 - 0.0
22/01:30am 22.6 21.7 18.3 76 2.7 W 20 26 11 14 1013.7 - 0.0
22/01:00am 23.0 21.9 18.7 77 2.7 W 22 28 12 15 1013.8 - 0.0
22/12:30am 23.2 22.8 19.3 79 2.5 W 20 26 11 14 1013.9 - 0.0
22/12:00am 23.6 23.5 19.9 80 2.4 W 20 28 11 15 1014.2 1014.2 0.0
 
Date/Time
WST
Temp
°C
App
Temp
°C
Dew
Point
Rel
Hum
%
Delta-T
°C
Wind Press
QNH
hPa
Press
MSL
hPa
Rain
since 9 am
mm
Dir
 
Spd
km/h
Gust
km/h
Spd
kts
Gust
kts
21/11:30pm 23.6 24.0 19.9 80 2.4 W 17 22 9 12 1014.3 - 0.0
21/11:00pm 23.5 23.6 19.1 76 2.8 WNW 17 20 9 11 1014.6 - 0.0
21/10:30pm 23.7 24.1 19.1 75 2.9 W 15 20 8 11 1014.5 - 0.0
21/10:00pm 24.4 24.3 18.7 70 3.6 W 17 24 9 13 1014.5 - 0.0
21/09:30pm 24.8 24.3 19.0 70 3.7 W 20 28 11 15 1014.8 - 0.0
21/09:00pm 25.1 24.2 19.0 69 3.9 W 22 28 12 15 1014.5 1014.5 0.0
21/08:30pm 25.3 24.5 18.5 66 4.3 W 20 26 11 14 1014.5 - 0.0
21/08:00pm 26.0 24.5 17.7 60 5.2 W 22 30 12 16 1014.2 - 0.0
21/07:30pm 26.4 24.7 17.1 56 5.8 W 22 30 12 16 1014.0 - 0.0
21/07:00pm 27.1 25.1 16.4 52 6.6 W 22 30 12 16 1013.6 - 0.0
21/06:30pm 28.0 25.9 15.2 45 7.8 NW 20 26 11 14 1013.4 - 0.0
21/06:00pm 30.6 26.7 9.4 26 11.9 W 20 28 11 15 1012.8 1012.8 0.0
21/05:30pm 32.3 27.8 10.1 25 12.7 W 24 37 13 20 1012.6 - 0.0
21/05:00pm 34.1 27.8 7.6 19 14.7 W 30 41 16 22 1012.4 - 0.0
21/04:30pm 32.9 29.1 14.7 33 11.2 WNW 28 33 15 18 1012.6 - 0.0
21/04:00pm 33.3 28.7 14.6 32 11.5 WNW 32 39 17 21 1012.6 - 0.0
21/03:30pm 33.4 28.5 14.3 31 11.7 WNW 33 41 18 22 1012.7 - 0.0
21/03:00pm 34.4 29.2 13.3 28 12.8 WNW 33 43 18 23 1012.6 1012.6 0.0
21/02:30pm 35.4 29.7 11.7 23 14.1 WNW 33 43 18 23 1012.7 - 0.0
21/02:00pm 35.8 29.7 10.5 21 14.8 NW 33 43 18 23 1012.8 - 0.0
21/01:30pm 36.5 29.8 9.5 19 15.6 NW 35 48 19 26 1013.0 - 0.0
21/01:26pm 36.8 30.0 10.6 20 15.4 WNW 37 48 20 26 1013.1 - 0.0
21/01:00pm 38.0 32.0 5.5 13 17.8 W 26 44 14 24 1013.4 - 0.0
21/12:33pm 38.3 30.7 0.5 9 19.2 WSW 30 50 16 27 1013.8 - 0.0
21/12:30pm 38.2 30.7 1.1 10 19.0 WSW 30 44 16 24 1013.9 - 0.0
21/12:00pm 37.7 30.5 2.8 11 18.3 WSW 30 44 16 24 1014.2 1014.2 0.0
21/11:30am 37.6 30.9 3.8 12 18.0 WSW 28 39 15 21 1014.7 - 0.0
21/11:03am 36.0 28.4 3.0 12 17.2 WSW 32 50 17 27 1015.0 - 0.0
21/11:00am 36.6 29.2 4.0 13 17.3 SW 32 43 17 23 1015.1 - 0.0
21/10:30am 35.2 28.0 4.9 15 16.2 WSW 32 43 17 23 1015.5 - 0.0
21/10:00am 33.7 26.6 5.5 17 15.1 SW 32 41 17 22 1016.1 - 0.0
21/09:30am 33.5 26.5 6.0 18 14.8 SW 32 41 17 22 1016.3 - 0.0
21/09:00am 32.7 25.8 6.4 19 14.2 SW 32 43 17 23 1016.4 1016.4 0.0
21/08:30am 31.2 24.7 6.7 21 13.2 SW 30 39 16 21 1016.3 - 0.0
21/08:00am 29.3 24.2 7.7 25 11.7 SW 24 33 13 18 1016.2 - 0.0
21/07:30am 26.9 22.7 8.2 30 10.1 WSW 20 28 11 15 1015.8 - 0.0
21/07:00am 23.4 19.9 8.8 39 7.8 W 17 20 9 11 1015.5 - 0.0
21/06:30am 20.2 16.8 9.2 49 5.8 WSW 17 20 9 11 1015.0 - 0.0
21/06:00am 19.1 16.6 9.7 54 5.0 WSW 13 17 7 9 1014.6 1014.6 0.0
21/05:30am 18.4 16.0 9.9 57 4.5 SW 13 17 7 9 1014.3 - 0.0
21/05:00am 20.6 17.7 9.5 49 5.9 SW 15 20 8 11 1014.1 - 0.0
21/04:30am 21.0 18.1 9.8 48 6.0 SW 15 19 8 10 1013.6 - 0.0
21/04:00am 20.5 18.7 12.1 58 4.7 SSW 13 17 7 9 1013.6 - 0.0
21/03:30am 22.1 20.1 12.8 55 5.3 S 15 20 8 11 1013.7 - 0.0
21/03:00am 22.7 20.1 13.8 57 5.2 SW 20 24 11 13 1013.5 1013.5 0.0
21/02:30am 22.8 21.8 15.6 64 4.3 SW 15 22 8 12 1013.7 - 0.0
21/02:00am 22.4 21.6 16.1 67 3.8 WSW 15 19 8 10 1013.9 - 0.0
21/01:30am 22.5 21.7 16.2 67 3.8 WSW 15 20 8 11 1014.1 - 0.0
21/01:00am 22.5 21.7 16.2 67 3.8 W 15 19 8 10 1014.3 - 0.0
21/12:30am 23.1 21.5 16.0 64 4.3 W 19 20 10 11 1014.2 - 0.0
21/12:00am 23.7 21.9 15.4 59 5.0 WSW 19 24 10 13 1014.1 1014.1 0.0
 
Date/Time
WST
Temp
°C
App
Temp
°C
Dew
Point
Rel
Hum
%
Delta-T
°C
Wind Press
QNH
hPa
Press
MSL
hPa
Rain
since 9 am
mm
Dir
 
Spd
km/h
Gust
km/h
Spd
kts
Gust
kts
20/11:30pm 24.4 22.9 15.2 56 5.5 SW 17 20 9 11 1014.4 - 0.0
20/11:00pm 24.4 22.7 14.6 54 5.8 WNW 17 22 9 12 1014.7 - 0.0
20/10:30pm 23.6 22.4 15.0 58 5.1 WSW 15 17 8 9 1014.7 - 0.0
20/10:00pm 24.3 22.9 15.5 58 5.3 W 17 20 9 11 1015.1 - 0.0
20/09:30pm 25.4 23.9 16.3 57 5.6 W 19 24 10 13 1015.1 - 0.0
20/09:00pm 25.7 23.6 16.2 55 5.8 W 22 28 12 15 1015.2 1015.2 0.0
20/08:30pm 25.1 23.5 14.9 53 6.1 W 17 20 9 11 1015.2 - 0.0
20/08:00pm 25.4 23.2 13.2 46 7.1 W 17 20 9 11 1014.9 - 0.0
20/07:30pm 26.5 23.8 11.8 40 8.4 W 17 20 9 11 1014.5 - 0.0
20/07:00pm 27.7 24.7 12.6 39 8.8 W 20 26 11 14 1014.0 - 0.0
20/06:30pm 28.5 25.6 12.2 36 9.5 WNW 19 24 10 13 1013.4 - 0.0
20/06:00pm 29.5 26.3 12.0 34 10.2 WNW 20 24 11 13 1013.0 1013.0 0.0
20/05:30pm 31.1 27.0 11.5 30 11.4 WNW 24 30 13 16 1012.7 - 0.0
20/05:00pm 32.5 28.4 11.5 27 12.3 WNW 24 30 13 16 1012.4 - 0.0
20/04:30pm 33.6 29.2 10.5 24 13.4 WNW 24 37 13 20 1012.1 - 0.0
20/04:00pm 34.0 28.9 6.2 17 15.1 WNW 22 28 12 15 1012.4 - 0.0
20/03:30pm 34.6 29.7 7.0 18 15.2 NW 22 28 12 15 1012.3 - 0.0
20/03:00pm 34.6 29.1 6.1 17 15.5 NW 24 30 13 16 1012.6 1012.6 0.0
20/02:30pm 33.8 28.1 8.3 20 14.3 NNW 28 33 15 18 1012.8 - 0.0
20/02:00pm 35.7 31.1 8.3 18 15.5 NW 22 28 12 15 1012.7 - 0.0
20/01:30pm 35.3 29.4 5.8 16 16.0 NW 26 35 14 19 1012.9 - 0.0
20/01:00pm 37.6 31.9 -1.1 8 19.1 NW 19 28 10 15 1013.0 - 0.0
20/12:30pm 37.3 31.9 2.2 11 18.2 NNW 20 26 11 14 1013.5 - 0.0
20/12:00pm 38.3 35.2 3.5 11 18.5 W 9 17 5 9 1013.8 1013.8 0.0
20/11:30am 36.3 32.6 2.5 12 17.5 SW 11 19 6 10 1014.4 - 0.0
20/11:00am 36.0 32.9 3.4 13 17.1 SSW 9 17 5 9 1014.9 - 0.0
20/10:30am 35.1 31.4 2.3 12 16.8 W 11 17 6 9 1015.3 - 0.0

Other Formats:

Comma delimited format used in spreadsheet applications
http://www.bom.gov.au/fwo/IDW60801/IDW60801.94312.axf

JavaScript Object Notation format (JSON) in row-major order
http://www.bom.gov.au/fwo/IDW60801/IDW60801.94312.json